createdAt,value
2022-08-02T00:00:38.815Z,0.00
2022-08-02T00:01:55.271Z,0.00
2022-08-02T00:03:11.633Z,0.00
2022-08-02T00:04:29.959Z,0.00
2022-08-02T00:05:53.555Z,0.00
2022-08-02T00:07:07.914Z,0.00
2022-08-02T00:08:24.344Z,0.00
2022-08-02T00:09:40.743Z,0.00
2022-08-02T00:10:57.114Z,0.00
2022-08-02T00:12:14.092Z,0.00
2022-08-02T00:13:30.504Z,0.00
2022-08-02T00:14:46.916Z,0.00
2022-08-02T00:16:05.289Z,0.00
2022-08-02T00:17:21.756Z,0.00
2022-08-02T00:18:40.469Z,0.00
2022-08-02T00:19:57.586Z,0.00
2022-08-02T00:21:15.997Z,0.00
2022-08-02T00:22:33.078Z,0.00
2022-08-02T00:24:27.810Z,0.00
2022-08-02T00:25:11.668Z,0.00
2022-08-02T00:26:28.050Z,0.00
2022-08-02T00:27:44.429Z,0.00
2022-08-02T00:29:00.812Z,0.00
2022-08-02T00:30:19.181Z,0.00
2022-08-02T00:31:36.772Z,0.00
2022-08-02T00:32:53.142Z,0.00
2022-08-02T00:34:28.881Z,0.00
2022-08-02T00:35:30.902Z,0.00
2022-08-02T00:36:47.294Z,0.00
2022-08-02T00:38:03.952Z,0.00
2022-08-02T00:39:35.231Z,0.00
2022-08-02T00:40:43.497Z,0.00
2022-08-02T00:42:01.876Z,0.00
2022-08-02T00:43:18.257Z,0.00
2022-08-02T00:44:34.945Z,0.00
2022-08-02T00:46:03.090Z,0.00
2022-08-02T00:47:15.012Z,0.00
2022-08-02T00:48:33.809Z,0.00
2022-08-02T00:49:50.900Z,0.00
2022-08-02T00:51:07.569Z,0.00
2022-08-02T00:52:25.887Z,0.00
2022-08-02T00:53:44.221Z,0.00
2022-08-02T00:55:02.564Z,0.00
2022-08-02T00:56:18.952Z,0.00
2022-08-02T00:57:35.592Z,0.00
2022-08-02T00:58:52.022Z,0.00
2022-08-02T01:00:08.395Z,0.00
2022-08-02T01:01:26.782Z,0.00
2022-08-02T01:02:43.111Z,0.00
2022-08-02T01:04:00.733Z,0.00
2022-08-02T01:05:17.096Z,0.00
2022-08-02T01:06:33.613Z,0.00
2022-08-02T01:07:49.975Z,0.00
2022-08-02T01:09:06.364Z,0.00
2022-08-02T01:10:23.007Z,0.00
2022-08-02T01:11:39.395Z,0.00
2022-08-02T01:12:55.737Z,0.00
2022-08-02T01:14:12.157Z,0.00
2022-08-02T01:15:36.228Z,0.00
2022-08-02T01:16:49.756Z,0.00
2022-08-02T01:18:06.116Z,0.00
2022-08-02T01:19:22.519Z,0.00
2022-08-02T01:20:38.892Z,0.00
2022-08-02T01:21:55.260Z,0.00
2022-08-02T01:23:11.900Z,0.00
2022-08-02T01:24:28.320Z,0.00
2022-08-02T01:25:44.722Z,0.00
2022-08-02T01:27:01.098Z,0.00
2022-08-02T01:28:17.454Z,0.00
2022-08-02T01:29:34.145Z,0.00
2022-08-02T01:30:50.503Z,0.00
2022-08-02T01:32:08.792Z,0.00
2022-08-02T01:33:25.445Z,0.00
2022-08-02T01:34:41.826Z,0.00
2022-08-02T01:35:58.467Z,0.00
2022-08-02T01:37:14.924Z,0.00
2022-08-02T01:38:31.288Z,0.00
2022-08-02T01:39:47.678Z,0.00
2022-08-02T01:41:04.048Z,0.00
2022-08-02T01:42:21.689Z,0.00
2022-08-02T01:43:38.079Z,0.00
2022-08-02T01:44:54.459Z,0.00
2022-08-02T01:46:10.829Z,0.00
2022-08-02T01:47:27.203Z,0.00
2022-08-02T01:48:43.971Z,0.00
2022-08-02T01:50:00.340Z,0.00
2022-08-02T01:51:16.702Z,0.00
2022-08-02T01:52:34.103Z,0.00
2022-08-02T01:53:50.581Z,0.00
2022-08-02T01:55:07.242Z,0.00
2022-08-02T01:56:28.217Z,0.00
2022-08-02T01:57:44.594Z,0.00
2022-08-02T01:59:01.028Z,0.00
2022-08-02T02:00:17.406Z,0.00
2022-08-02T02:01:34.097Z,0.00
2022-08-02T02:02:50.440Z,0.00
2022-08-02T02:04:06.939Z,0.00
2022-08-02T02:05:23.308Z,0.00
2022-08-02T02:06:39.680Z,0.00
2022-08-02T02:07:56.330Z,0.00
2022-08-02T02:09:12.758Z,0.00
2022-08-02T02:10:29.141Z,0.00
2022-08-02T02:12:14.188Z,0.00
2022-08-02T02:13:06.712Z,0.00
2022-08-02T02:14:23.372Z,0.00
2022-08-02T02:15:40.886Z,0.00
2022-08-02T02:16:57.964Z,0.00
2022-08-02T02:18:14.345Z,0.00
2022-08-02T02:19:30.745Z,0.00
2022-08-02T02:20:47.395Z,0.00
2022-08-02T02:22:03.774Z,0.00
2022-08-02T02:23:21.268Z,0.00
2022-08-02T02:24:43.367Z,0.00
2022-08-02T02:26:01.849Z,0.00
2022-08-02T02:27:20.528Z,0.00
2022-08-02T02:28:36.909Z,0.00
2022-08-02T02:29:53.299Z,0.00
2022-08-02T02:31:11.631Z,0.00
2022-08-02T02:32:28.001Z,0.00
2022-08-02T02:33:44.682Z,0.00
2022-08-02T02:35:01.086Z,0.00
2022-08-02T02:36:17.461Z,0.00
2022-08-02T02:37:35.773Z,0.00
2022-08-02T02:38:52.143Z,0.00
2022-08-02T02:40:10.754Z,0.00
2022-08-02T02:41:27.134Z,0.00
2022-08-02T02:42:49.276Z,0.00
2022-08-02T02:44:05.975Z,0.00
2022-08-02T02:45:24.298Z,0.00
2022-08-02T02:46:40.956Z,0.00
2022-08-02T02:47:59.269Z,0.00
2022-08-02T02:49:15.693Z,0.00
2022-08-02T02:50:32.028Z,0.00
2022-08-02T02:51:50.349Z,0.00
2022-08-02T02:53:07.007Z,0.00
2022-08-02T02:54:30.314Z,0.00
2022-08-02T02:56:01.899Z,0.00
2022-08-02T02:57:05.833Z,0.00
2022-08-02T02:58:29.140Z,0.00
2022-08-02T02:59:49.428Z,0.00
2022-08-02T03:01:06.339Z,0.00
2022-08-02T03:02:22.695Z,0.00
2022-08-02T03:03:39.127Z,0.00
2022-08-02T03:04:58.174Z,0.00
2022-08-02T03:06:14.705Z,0.00
2022-08-02T03:07:32.254Z,0.00
2022-08-02T03:08:48.615Z,0.00
2022-08-02T03:10:05.012Z,0.00
2022-08-02T03:11:21.691Z,0.00
2022-08-02T03:12:38.120Z,0.00
2022-08-02T03:13:54.501Z,0.00
2022-08-02T03:15:10.895Z,0.00
2022-08-02T03:16:27.293Z,0.00
2022-08-02T03:17:43.952Z,0.00
2022-08-02T03:19:00.343Z,0.00
2022-08-02T03:20:16.735Z,0.00
2022-08-02T03:21:33.311Z,0.00
2022-08-02T03:22:50.062Z,0.00
2022-08-02T03:24:06.788Z,0.00
2022-08-02T03:25:23.166Z,0.00
2022-08-02T03:26:39.607Z,0.00
2022-08-02T03:27:56.000Z,0.00
2022-08-02T03:29:14.320Z,0.00
2022-08-02T03:30:31.018Z,0.00
2022-08-02T03:31:47.389Z,0.00
2022-08-02T03:33:03.822Z,0.00
2022-08-02T03:34:20.211Z,0.00
2022-08-02T03:35:36.593Z,0.00
2022-08-02T03:36:53.231Z,0.00
2022-08-02T03:38:09.713Z,0.00
2022-08-02T03:39:26.073Z,0.00
2022-08-02T03:40:44.423Z,0.00
2022-08-02T03:42:00.825Z,0.00
2022-08-02T03:43:18.024Z,0.00
2022-08-02T03:44:34.395Z,0.00
2022-08-02T03:45:50.796Z,0.00
2022-08-02T03:47:07.206Z,0.00
2022-08-02T03:48:33.686Z,0.00
2022-08-02T03:49:44.857Z,0.00
2022-08-02T03:51:03.229Z,0.00
2022-08-02T03:52:19.612Z,0.00
2022-08-02T03:53:35.986Z,0.00
2022-08-02T03:54:52.690Z,0.00
2022-08-02T03:56:09.076Z,0.00
2022-08-02T03:57:27.421Z,0.00
2022-08-02T03:58:48.887Z,0.00
2022-08-02T04:00:07.051Z,0.00
2022-08-02T04:01:23.735Z,0.00
2022-08-02T04:02:40.143Z,3.00
2022-08-02T04:03:56.563Z,3.00
2022-08-02T04:05:14.913Z,0.00
2022-08-02T04:06:33.265Z,0.00
2022-08-02T04:08:34.235Z,0.00
2022-08-02T04:09:13.095Z,0.00
2022-08-02T04:10:31.466Z,0.00
2022-08-02T04:11:49.809Z,0.00
2022-08-02T04:13:08.166Z,0.00
2022-08-02T04:14:24.966Z,0.00
2022-08-02T04:15:43.322Z,4.00
2022-08-02T04:16:59.709Z,4.00
2022-08-02T04:18:18.029Z,4.00
2022-08-02T04:19:36.361Z,1.00
2022-08-02T04:20:53.050Z,1.00
2022-08-02T04:22:09.717Z,1.00
2022-08-02T04:23:26.242Z,1.00
2022-08-02T04:24:42.938Z,33.00
2022-08-02T04:26:03.585Z,33.00
2022-08-02T04:27:50.123Z,33.00
2022-08-02T04:28:49.694Z,33.00
2022-08-02T04:30:07.007Z,1.00
2022-08-02T04:31:24.866Z,1.00
2022-08-02T04:32:42.945Z,9.00
2022-08-02T04:34:01.826Z,9.00
2022-08-02T04:35:20.404Z,9.00
2022-08-02T04:36:39.137Z,9.00
2022-08-02T04:38:05.620Z,9.00
2022-08-02T04:39:20.229Z,31.00
2022-08-02T04:40:38.616Z,31.00
2022-08-02T04:41:58.009Z,31.00
2022-08-02T04:43:14.530Z,31.00
2022-08-02T04:44:33.171Z,27.00
2022-08-02T04:45:51.632Z,13.00
2022-08-02T04:47:08.212Z,27.00
2022-08-02T04:48:26.571Z,27.00
2022-08-02T04:49:44.963Z,27.00
2022-08-02T04:51:03.555Z,36.00
2022-08-02T04:52:20.144Z,36.00
2022-08-02T04:53:38.465Z,23.00
2022-08-02T04:54:56.796Z,23.00
2022-08-02T04:56:13.266Z,419.00
2022-08-02T04:57:30.899Z,422.00
2022-08-02T04:58:48.789Z,419.00
2022-08-02T05:00:07.308Z,419.00
2022-08-02T05:01:25.679Z,408.00
2022-08-02T05:02:44.350Z,422.00
2022-08-02T05:04:01.019Z,422.00
2022-08-02T05:05:19.391Z,419.00
2022-08-02T05:06:35.811Z,419.00
2022-08-02T05:07:54.201Z,422.00
2022-08-02T05:09:12.523Z,404.00
2022-08-02T05:10:31.176Z,404.00
2022-08-02T05:11:55.101Z,419.00
2022-08-02T05:13:11.784Z,419.00
2022-08-02T05:14:30.244Z,419.00
2022-08-02T05:15:47.671Z,419.00
2022-08-02T05:17:05.573Z,419.00
2022-08-02T05:18:25.719Z,404.00
2022-08-02T05:19:43.136Z,422.00
2022-08-02T05:21:00.767Z,422.00
2022-08-02T05:22:19.777Z,422.00
2022-08-02T05:23:37.507Z,422.00
2022-08-02T05:24:56.507Z,405.00
2022-08-02T05:26:15.364Z,425.00
2022-08-02T05:27:32.690Z,428.00
2022-08-02T05:28:52.187Z,435.00
2022-08-02T05:30:09.835Z,434.00
2022-08-02T05:31:29.182Z,434.00
2022-08-02T05:32:46.571Z,433.00
2022-08-02T05:34:05.789Z,434.00
2022-08-02T05:35:27.684Z,425.00
2022-08-02T05:36:46.915Z,434.00
2022-08-02T05:38:10.199Z,434.00
2022-08-02T05:39:31.768Z,434.00
2022-08-02T05:40:54.438Z,434.00
2022-08-02T05:42:11.758Z,434.00
2022-08-02T05:43:32.292Z,434.00
2022-08-02T05:44:50.170Z,434.00
2022-08-02T05:46:07.506Z,434.00
2022-08-02T05:47:24.877Z,415.00
2022-08-02T05:48:42.276Z,434.00
2022-08-02T05:49:59.949Z,434.00
2022-08-02T05:51:18.861Z,432.00
2022-08-02T05:52:36.229Z,425.00
2022-08-02T05:53:53.601Z,422.00
2022-08-02T05:55:11.512Z,418.00
2022-08-02T05:56:28.935Z,399.00
2022-08-02T05:57:46.374Z,409.00
2022-08-02T05:59:03.767Z,404.00
2022-08-02T06:00:22.166Z,412.00
2022-08-02T06:01:41.370Z,432.00
2022-08-02T06:03:00.305Z,434.00
2022-08-02T06:04:19.134Z,434.00
2022-08-02T06:05:38.017Z,435.00
2022-08-02T06:06:58.106Z,422.00
2022-08-02T06:08:15.527Z,419.00
2022-08-02T06:09:33.359Z,415.00
2022-08-02T06:10:51.759Z,434.00
2022-08-02T06:12:09.113Z,437.00
2022-08-02T06:13:26.528Z,434.00
2022-08-02T06:14:44.399Z,434.00
2022-08-02T06:16:01.746Z,435.00
2022-08-02T06:17:20.589Z,434.00
2022-08-02T06:18:38.014Z,434.00
2022-08-02T06:19:57.211Z,434.00
2022-08-02T06:22:31.324Z,434.00
2022-08-02T06:22:39.282Z,415.00
2022-08-02T06:23:58.832Z,419.00
2022-08-02T06:28:29.418Z,440.00
2022-08-02T06:29:48.717Z,440.00
2022-08-02T06:31:07.566Z,440.00
2022-08-02T06:32:26.427Z,445.00
2022-08-02T06:33:43.778Z,443.00
2022-08-02T06:35:01.609Z,447.00
2022-08-02T06:36:19.471Z,447.00
2022-08-02T06:37:39.129Z,447.00
2022-08-02T06:38:57.610Z,449.00
2022-08-02T06:40:15.856Z,449.00
2022-08-02T06:41:36.833Z,445.00
2022-08-02T06:42:55.433Z,447.00
2022-08-02T06:44:45.597Z,447.00
2022-08-02T06:45:36.117Z,447.00
2022-08-02T06:47:11.764Z,449.00
2022-08-02T06:48:17.731Z,449.00
2022-08-02T06:49:51.346Z,455.00
2022-08-02T06:50:57.564Z,455.00
2022-08-02T06:52:18.984Z,455.00
2022-08-02T06:53:37.296Z,453.00
2022-08-02T06:54:57.399Z,456.00
2022-08-02T06:56:14.823Z,455.00
2022-08-02T06:57:38.631Z,453.00
2022-08-02T06:59:04.334Z,455.00
2022-08-02T07:00:27.045Z,455.00
2022-08-02T07:01:48.882Z,448.00
2022-08-02T07:03:07.701Z,440.00
2022-08-02T07:04:25.141Z,468.00
2022-08-02T07:05:42.642Z,519.00
2022-08-02T07:07:01.765Z,538.00
2022-08-02T07:08:19.133Z,565.00
2022-08-02T07:09:36.517Z,558.00
2022-08-02T07:10:55.904Z,569.00
2022-08-02T07:12:13.565Z,574.00
2022-08-02T07:13:35.656Z,607.00
2022-08-02T07:14:55.398Z,624.00
2022-08-02T07:16:12.756Z,633.00
2022-08-02T07:17:31.639Z,653.00
2022-08-02T07:18:51.018Z,677.00
2022-08-02T07:20:14.155Z,690.00
2022-08-02T07:21:57.731Z,715.00
2022-08-02T07:22:57.987Z,738.00
2022-08-02T07:24:17.361Z,719.00
2022-08-02T07:26:03.355Z,755.00
2022-08-02T07:27:14.140Z,728.00
2022-08-02T07:28:24.690Z,734.00
2022-08-02T07:29:46.859Z,762.00
2022-08-02T07:31:08.266Z,777.00
2022-08-02T07:32:29.391Z,780.00
2022-08-02T07:33:55.037Z,698.00
2022-08-02T07:35:21.010Z,698.00
2022-08-02T07:36:44.888Z,692.00
2022-08-02T07:38:10.305Z,746.00
2022-08-02T07:39:32.059Z,726.00
2022-08-02T07:40:56.993Z,729.00
2022-08-02T07:42:14.704Z,718.00
2022-08-02T07:43:36.448Z,746.00
2022-08-02T07:44:56.175Z,756.00
2022-08-02T07:46:14.781Z,600.00
2022-08-02T07:47:34.358Z,623.00
2022-08-02T07:48:55.955Z,641.00
2022-08-02T07:50:28.622Z,663.00
2022-08-02T07:51:46.556Z,654.00
2022-08-02T07:53:04.696Z,625.00
2022-08-02T07:54:24.375Z,639.00
2022-08-02T07:55:43.898Z,659.00
2022-08-02T07:57:00.462Z,651.00
2022-08-02T07:58:20.705Z,653.00
2022-08-02T08:01:35.027Z,662.00
2022-08-02T08:02:58.885Z,642.00
2022-08-02T08:04:17.986Z,605.00
2022-08-02T08:05:39.145Z,631.00
2022-08-02T08:07:01.382Z,686.00
2022-08-02T08:08:18.866Z,687.00
2022-08-02T08:09:38.198Z,682.00
2022-08-02T08:10:57.068Z,690.00
2022-08-02T08:12:17.743Z,683.00
2022-08-02T08:13:39.895Z,689.00
2022-08-02T08:14:57.923Z,655.00
2022-08-02T08:16:17.633Z,668.00
2022-08-02T08:17:38.181Z,655.00
2022-08-02T08:18:56.351Z,677.00
2022-08-02T08:20:18.711Z,674.00
2022-08-02T08:21:37.792Z,671.00
2022-08-02T08:22:57.438Z,664.00
2022-08-02T08:26:15.547Z,674.00
2022-08-02T08:27:40.081Z,671.00
2022-08-02T08:29:03.037Z,684.00
2022-08-02T08:30:27.869Z,671.00
2022-08-02T08:31:47.070Z,686.00
2022-08-02T08:33:14.293Z,686.00
2022-08-02T08:34:33.202Z,668.00
2022-08-02T08:35:54.252Z,664.00
2022-08-02T08:37:17.137Z,655.00
2022-08-02T08:40:25.800Z,627.00
2022-08-02T08:41:43.622Z,662.00
2022-08-02T08:43:09.928Z,653.00
2022-08-02T08:44:33.732Z,595.00
2022-08-02T08:47:44.094Z,620.00
2022-08-02T08:49:04.219Z,633.00
2022-08-02T08:50:26.075Z,636.00
2022-08-02T08:53:38.191Z,628.00
2022-08-02T08:54:59.407Z,592.00
2022-08-02T08:56:20.168Z,540.00
2022-08-02T08:57:39.146Z,614.00
2022-08-02T08:59:00.246Z,609.00
2022-08-02T09:04:01.067Z,595.00
2022-08-02T09:05:18.799Z,595.00
2022-08-02T09:06:36.799Z,597.00
2022-08-02T09:07:54.851Z,597.00
2022-08-02T09:09:27.353Z,577.00
2022-08-02T09:10:44.818Z,564.00
2022-08-02T09:12:02.285Z,573.00
2022-08-02T09:13:38.418Z,574.00
2022-08-02T09:14:45.034Z,574.00
2022-08-02T09:16:11.105Z,565.00
2022-08-02T09:17:28.716Z,563.00
2022-08-02T09:18:49.361Z,559.00
2022-08-02T09:20:05.895Z,558.00
2022-08-02T09:23:12.990Z,642.00
2022-08-02T09:28:16.043Z,624.00
2022-08-02T09:29:48.633Z,626.00
2022-08-02T09:32:48.406Z,611.00
2022-08-02T09:34:07.738Z,589.00
2022-08-02T09:35:27.560Z,628.00
2022-08-02T09:36:55.951Z,607.00
2022-08-02T09:40:05.552Z,604.00
2022-08-02T09:46:56.816Z,600.00
2022-08-02T09:48:14.245Z,551.00
2022-08-02T09:49:32.781Z,477.00
2022-08-02T09:50:55.354Z,608.00
2022-08-02T09:52:13.662Z,503.00
2022-08-02T09:53:32.410Z,597.00
2022-08-02T09:54:50.706Z,612.00
2022-08-02T09:56:29.232Z,609.00
2022-08-02T09:57:33.890Z,581.00
2022-08-02T09:58:52.239Z,595.00
2022-08-02T10:00:14.220Z,595.00
2022-08-02T10:01:37.445Z,593.00
2022-08-02T10:02:54.001Z,604.00
2022-08-02T10:04:20.555Z,615.00
2022-08-02T10:05:56.085Z,600.00
2022-08-02T10:07:10.925Z,484.00
2022-08-02T10:08:29.963Z,505.00
2022-08-02T10:09:50.936Z,631.00
2022-08-02T10:11:09.531Z,545.00
2022-08-02T10:12:28.607Z,618.00
2022-08-02T10:13:47.737Z,531.00
2022-08-02T10:15:07.676Z,513.00
2022-08-02T10:16:31.302Z,515.00
2022-08-02T10:17:50.529Z,621.00
2022-08-02T10:19:14.129Z,600.00
2022-08-02T10:20:31.449Z,558.00
2022-08-02T10:21:50.603Z,501.00
2022-08-02T10:23:09.550Z,503.00
2022-08-02T10:24:27.391Z,527.00
2022-08-02T10:25:46.282Z,631.00
2022-08-02T10:27:04.620Z,622.00
2022-08-02T10:28:23.862Z,637.00
2022-08-02T10:29:53.350Z,633.00
2022-08-02T10:31:04.813Z,629.00
2022-08-02T10:32:22.800Z,621.00
2022-08-02T10:33:40.162Z,530.00
2022-08-02T10:35:18.734Z,616.00
2022-08-02T10:36:22.888Z,620.00
2022-08-02T10:37:41.975Z,635.00
2022-08-02T10:38:59.285Z,635.00
2022-08-02T10:40:16.637Z,629.00
2022-08-02T10:41:34.227Z,614.00
2022-08-02T10:42:53.158Z,581.00
2022-08-02T10:44:24.342Z,576.00
2022-08-02T10:45:33.202Z,560.00
2022-08-02T10:46:50.950Z,552.00
2022-08-02T10:48:09.418Z,552.00
2022-08-02T10:49:43.951Z,541.00
2022-08-02T10:50:50.681Z,560.00
2022-08-02T10:52:09.642Z,612.00
2022-08-02T10:53:29.122Z,528.00
2022-08-02T10:54:47.521Z,511.00
2022-08-02T10:56:06.317Z,511.00
2022-08-02T10:57:27.834Z,511.00
2022-08-02T10:58:46.237Z,563.00
2022-08-02T11:00:03.543Z,628.00
2022-08-02T11:01:20.973Z,517.00
2022-08-02T11:02:40.145Z,576.00
2022-08-02T11:03:59.247Z,617.00
2022-08-02T11:05:16.607Z,603.00
2022-08-02T11:06:35.477Z,612.00
2022-08-02T11:07:52.860Z,614.00
2022-08-02T11:09:12.526Z,614.00
2022-08-02T11:10:32.101Z,608.00
2022-08-02T11:11:53.939Z,612.00
2022-08-02T11:13:16.051Z,608.00
2022-08-02T11:14:33.360Z,476.00
2022-08-02T11:15:52.487Z,469.00
2022-08-02T11:17:09.809Z,468.00
2022-08-02T11:18:27.177Z,554.00
2022-08-02T11:19:46.017Z,476.00
2022-08-02T11:21:05.304Z,530.00
2022-08-02T11:22:25.994Z,480.00
2022-08-02T11:23:45.004Z,520.00
2022-08-02T11:25:03.276Z,502.00
2022-08-02T11:26:20.647Z,480.00
2022-08-02T11:27:39.031Z,509.00
2022-08-02T11:28:56.417Z,500.00
2022-08-02T11:30:15.328Z,604.00
2022-08-02T11:31:34.166Z,597.00
2022-08-02T11:32:52.650Z,623.00
2022-08-02T11:34:11.780Z,604.00
2022-08-02T11:35:33.960Z,593.00
2022-08-02T11:36:52.748Z,604.00
2022-08-02T11:38:14.244Z,623.00
2022-08-02T11:39:33.569Z,627.00
2022-08-02T11:40:57.409Z,597.00
2022-08-02T11:42:15.813Z,608.00
2022-08-02T11:43:33.628Z,498.00
2022-08-02T11:44:52.116Z,500.00
2022-08-02T11:46:10.996Z,496.00
2022-08-02T11:47:30.857Z,480.00
2022-08-02T11:48:49.707Z,484.00
2022-08-02T11:50:09.109Z,589.00
2022-08-02T11:51:26.407Z,601.00
2022-08-02T11:52:45.621Z,623.00
2022-08-02T11:54:02.990Z,612.00
2022-08-02T11:55:20.332Z,612.00
2022-08-02T11:56:37.680Z,604.00
2022-08-02T11:58:04.196Z,593.00
2022-08-02T11:59:19.780Z,591.00
2022-08-02T12:00:38.641Z,588.00
2022-08-02T12:01:57.452Z,570.00
2022-08-02T12:03:19.522Z,583.00
2022-08-02T12:04:38.422Z,579.00
2022-08-02T12:06:06.419Z,576.00
2022-08-02T12:07:18.193Z,556.00
2022-08-02T12:08:41.894Z,588.00
2022-08-02T12:10:05.031Z,567.00
2022-08-02T12:11:24.237Z,600.00
2022-08-02T12:12:43.187Z,593.00
2022-08-02T12:14:02.042Z,589.00
2022-08-02T12:15:21.257Z,589.00
2022-08-02T12:16:39.507Z,578.00
2022-08-02T12:19:54.047Z,579.00
2022-08-02T12:21:13.453Z,573.00
2022-08-02T12:22:32.302Z,541.00
2022-08-02T12:23:59.875Z,541.00
2022-08-02T12:25:14.805Z,560.00
2022-08-02T12:26:37.036Z,558.00
2022-08-02T12:27:55.888Z,562.00
2022-08-02T12:29:14.275Z,566.00
2022-08-02T12:30:34.248Z,474.00
2022-08-02T12:33:42.126Z,487.00
2022-08-02T12:35:01.065Z,490.00
2022-08-02T12:36:18.459Z,487.00
2022-08-02T12:37:37.636Z,496.00
2022-08-02T12:38:56.497Z,498.00
2022-08-02T12:40:14.388Z,508.00
2022-08-02T12:41:32.812Z,510.00
2022-08-02T12:42:52.349Z,465.00
2022-08-02T12:44:10.139Z,450.00
2022-08-02T12:45:40.444Z,450.00
2022-08-02T12:46:51.750Z,474.00
2022-08-02T12:48:11.696Z,483.00
2022-08-02T12:49:30.602Z,498.00
2022-08-02T12:50:53.353Z,504.00
2022-08-02T12:52:11.784Z,469.00
2022-08-02T12:53:29.780Z,470.00
2022-08-02T12:54:48.989Z,483.00
2022-08-02T12:56:09.305Z,451.00
2022-08-02T12:57:27.292Z,488.00
2022-08-02T12:58:46.456Z,506.00
2022-08-02T13:00:03.866Z,491.00
2022-08-02T13:01:22.774Z,499.00
2022-08-02T13:02:39.497Z,498.00
2022-08-02T13:04:09.606Z,500.00
2022-08-02T13:05:20.568Z,489.00
2022-08-02T13:06:45.743Z,500.00
2022-08-02T13:07:59.306Z,498.00
2022-08-02T13:09:18.906Z,500.00
2022-08-02T13:10:37.953Z,504.00
2022-08-02T13:11:55.322Z,506.00
2022-08-02T13:13:14.193Z,506.00
2022-08-02T13:14:35.738Z,523.00
2022-08-02T13:15:55.784Z,523.00
2022-08-02T13:17:18.335Z,469.00
2022-08-02T13:18:36.538Z,452.00
2022-08-02T13:19:55.456Z,459.00
2022-08-02T13:21:19.718Z,459.00
2022-08-02T13:22:37.361Z,446.00
2022-08-02T13:24:01.054Z,448.00
2022-08-02T13:25:23.273Z,469.00
2022-08-02T13:26:42.138Z,481.00
2022-08-02T13:27:59.447Z,487.00
2022-08-02T13:29:18.150Z,496.00
2022-08-02T13:30:35.508Z,496.00
2022-08-02T13:31:52.880Z,459.00
2022-08-02T13:33:11.786Z,461.00
2022-08-02T13:34:30.741Z,459.00
2022-08-02T13:35:49.830Z,487.00
2022-08-02T13:37:07.200Z,495.00
2022-08-02T13:38:27.111Z,496.00
2022-08-02T13:40:11.754Z,450.00
2022-08-02T13:41:11.382Z,495.00
2022-08-02T13:42:30.225Z,509.00
2022-08-02T13:43:55.305Z,501.00
2022-08-02T13:45:13.752Z,506.00
2022-08-02T13:46:31.796Z,460.00
2022-08-02T13:48:04.057Z,450.00
2022-08-02T13:49:18.451Z,533.00
2022-08-02T13:50:35.727Z,472.00
2022-08-02T13:51:54.662Z,523.00
2022-08-02T13:53:12.010Z,444.00
2022-08-02T13:54:31.198Z,529.00
2022-08-02T13:55:53.397Z,557.00
2022-08-02T13:57:13.189Z,542.00
2022-08-02T13:58:31.673Z,557.00
2022-08-02T13:59:56.445Z,527.00
2022-08-02T14:01:13.674Z,542.00
2022-08-02T14:02:32.033Z,515.00
2022-08-02T14:04:08.290Z,526.00
2022-08-02T14:05:15.846Z,544.00
2022-08-02T14:06:34.786Z,538.00
2022-08-02T14:07:52.125Z,540.00
2022-08-02T14:09:09.815Z,513.00
2022-08-02T14:10:31.387Z,513.00
2022-08-02T14:11:51.118Z,523.00
2022-08-02T14:13:09.976Z,417.00
2022-08-02T14:14:27.338Z,468.00
2022-08-02T14:15:49.631Z,533.00
2022-08-02T14:17:08.621Z,519.00
2022-08-02T14:18:26.390Z,513.00
2022-08-02T14:19:43.081Z,508.00
2022-08-02T14:21:00.932Z,505.00
2022-08-02T14:22:17.486Z,513.00
2022-08-02T14:23:49.267Z,509.00
2022-08-02T14:25:09.030Z,538.00
2022-08-02T14:26:27.338Z,546.00
2022-08-02T14:27:46.587Z,551.00
2022-08-02T14:29:03.956Z,561.00
2022-08-02T14:30:23.116Z,506.00
2022-08-02T14:31:44.671Z,462.00
2022-08-02T14:33:02.452Z,449.00
2022-08-02T14:34:19.791Z,430.00
2022-08-02T14:35:38.737Z,509.00
2022-08-02T14:36:56.338Z,536.00
2022-08-02T14:38:14.751Z,535.00
2022-08-02T14:39:42.880Z,442.00
2022-08-02T14:40:55.250Z,533.00
2022-08-02T14:42:13.053Z,513.00
2022-08-02T14:43:31.783Z,498.00
2022-08-02T14:44:49.104Z,474.00
2022-08-02T14:46:08.043Z,491.00
2022-08-02T14:47:27.052Z,505.00
2022-08-02T14:48:44.393Z,504.00
2022-08-02T14:50:02.177Z,535.00
2022-08-02T14:51:19.634Z,526.00
2022-08-02T14:52:38.046Z,529.00
2022-08-02T14:54:02.919Z,523.00
2022-08-02T14:55:18.697Z,523.00
2022-08-02T14:56:37.057Z,526.00
2022-08-02T14:57:55.381Z,512.00
2022-08-02T14:59:13.738Z,526.00
2022-08-02T15:00:30.201Z,503.00
2022-08-02T15:01:47.550Z,466.00
2022-08-02T15:03:06.180Z,146.00
2022-08-02T15:04:27.491Z,205.00
2022-08-02T15:05:45.992Z,194.00
2022-08-02T15:07:05.699Z,214.00
2022-08-02T15:08:22.162Z,183.00
2022-08-02T15:09:41.114Z,147.00
2022-08-02T15:10:59.445Z,150.00
2022-08-02T15:12:18.036Z,175.00
2022-08-02T15:13:40.926Z,187.00
2022-08-02T15:14:59.426Z,187.00
2022-08-02T15:16:17.076Z,178.00
2022-08-02T15:17:36.175Z,157.00
2022-08-02T15:18:54.048Z,157.00
2022-08-02T15:20:24.811Z,187.00
2022-08-02T15:21:41.672Z,152.00
2022-08-02T15:23:00.679Z,174.00
2022-08-02T15:24:17.999Z,192.00
2022-08-02T15:25:37.319Z,165.00
2022-08-02T15:26:57.822Z,188.00
2022-08-02T15:28:16.629Z,200.00
2022-08-02T15:29:33.043Z,214.00
2022-08-02T15:30:51.403Z,201.00
2022-08-02T15:32:10.256Z,196.00
2022-08-02T15:33:27.893Z,196.00
2022-08-02T15:34:45.497Z,173.00
2022-08-02T15:36:04.966Z,161.00
2022-08-02T15:37:23.343Z,179.00
2022-08-02T15:38:43.765Z,171.00
2022-08-02T15:40:01.176Z,179.00
2022-08-02T15:41:19.537Z,175.00
2022-08-02T15:42:38.071Z,175.00
2022-08-02T15:44:01.057Z,179.00
2022-08-02T15:45:19.609Z,186.00
2022-08-02T15:46:38.321Z,157.00
2022-08-02T15:47:56.731Z,138.00
2022-08-02T15:49:15.206Z,141.00
2022-08-02T15:50:33.580Z,139.00
2022-08-02T15:51:51.961Z,147.00
2022-08-02T15:53:10.572Z,130.00
2022-08-02T15:54:28.993Z,161.00
2022-08-02T15:55:52.717Z,165.00
2022-08-02T15:57:10.515Z,122.00
2022-08-02T15:58:28.374Z,134.00
2022-08-02T15:59:47.477Z,142.00
2022-08-02T16:01:04.851Z,122.00
2022-08-02T16:02:23.730Z,139.00
2022-08-02T16:03:41.266Z,137.00
2022-08-02T16:04:59.637Z,130.00
2022-08-02T16:06:17.991Z,134.00
2022-08-02T16:07:40.776Z,122.00
2022-08-02T16:08:59.400Z,139.00
2022-08-02T16:10:15.842Z,139.00
2022-08-02T16:11:32.490Z,169.00
2022-08-02T16:12:50.833Z,147.00
2022-08-02T16:14:09.201Z,137.00
2022-08-02T16:15:27.602Z,130.00
2022-08-02T16:16:45.964Z,157.00
2022-08-02T16:18:02.616Z,169.00
2022-08-02T16:19:46.776Z,144.00
2022-08-02T16:20:44.224Z,169.00
2022-08-02T16:22:02.146Z,159.00
2022-08-02T16:23:18.637Z,144.00
2022-08-02T16:24:39.948Z,139.00
2022-08-02T16:25:58.487Z,115.00
2022-08-02T16:27:16.979Z,120.00
2022-08-02T16:28:33.498Z,102.00
2022-08-02T16:29:51.899Z,128.00
2022-08-02T16:31:11.754Z,98.00
2022-08-02T16:32:30.160Z,111.00
2022-08-02T16:33:49.037Z,84.00
2022-08-02T16:35:07.672Z,114.00
2022-08-02T16:36:26.791Z,92.00
2022-08-02T16:37:52.510Z,98.00
2022-08-02T16:39:07.665Z,102.00
2022-08-02T16:40:24.077Z,115.00
2022-08-02T16:41:51.090Z,83.00
2022-08-02T16:43:09.144Z,104.00
2022-08-02T16:44:30.050Z,93.00
2022-08-02T16:45:46.850Z,102.00
2022-08-02T16:47:05.940Z,106.00
2022-08-02T16:48:23.348Z,102.00
2022-08-02T16:50:06.612Z,120.00
2022-08-02T16:51:03.134Z,141.00
2022-08-02T16:52:22.537Z,124.00
2022-08-02T16:54:00.605Z,98.00
2022-08-02T16:55:07.119Z,92.00
2022-08-02T16:56:25.548Z,73.00
2022-08-02T16:57:50.002Z,89.00
2022-08-02T16:59:06.572Z,120.00
2022-08-02T17:00:27.990Z,84.00
2022-08-02T17:02:02.984Z,94.00
2022-08-02T17:03:13.201Z,91.00
2022-08-02T17:04:33.551Z,84.00
2022-08-02T17:05:56.632Z,77.00
2022-08-02T17:08:07.484Z,96.00
2022-08-02T17:08:36.747Z,67.00
2022-08-02T17:10:01.782Z,110.00
2022-08-02T17:11:21.257Z,93.00
2022-08-02T17:12:44.458Z,93.00
2022-08-02T17:14:07.677Z,93.00
2022-08-02T17:16:15.700Z,83.00
2022-08-02T17:16:51.710Z,67.00
2022-08-02T17:18:10.110Z,102.00